sensor_id;sensor_type;location;lat;lon;timestamp;pressure;altitude;pressure_sealevel;temperature;humidity
21361;BME280;10839;43.206;23.550;2022-12-10T00:01:08;96377.66;;;12.11;100.00
21361;BME280;10839;43.206;23.550;2022-12-10T00:03:36;96353.28;;;12.71;100.00
21361;BME280;10839;43.206;23.550;2022-12-10T00:06:04;96383.28;;;12.63;100.00
21361;BME280;10839;43.206;23.550;2022-12-10T00:08:31;96377.88;;;13.11;100.00
21361;BME280;10839;43.206;23.550;2022-12-10T00:10:58;96386.28;;;12.55;100.00
21361;BME280;10839;43.206;23.550;2022-12-10T00:13:24;96393.41;;;10.65;100.00
21361;BME280;10839;43.206;23.550;2022-12-10T00:15:50;96412.75;;;8.79;100.00
21361;BME280;10839;43.206;23.550;2022-12-10T00:18:17;96386.34;;;8.29;100.00
21361;BME280;10839;43.206;23.550;2022-12-10T00:20:43;96380.56;;;8.92;100.00
21361;BME280;10839;43.206;23.550;2022-12-10T00:23:10;96381.94;;;8.15;100.00
21361;BME280;10839;43.206;23.550;2022-12-10T00:25:36;96368.72;;;8.07;100.00
21361;BME280;10839;43.206;23.550;2022-12-10T00:28:02;96398.16;;;8.41;100.00
21361;BME280;10839;43.206;23.550;2022-12-10T00:30:30;96404.59;;;8.12;100.00
21361;BME280;10839;43.206;23.550;2022-12-10T00:32:56;96390.84;;;7.32;100.00
21361;BME280;10839;43.206;23.550;2022-12-10T00:35:22;96398.75;;;6.77;100.00
21361;BME280;10839;43.206;23.550;2022-12-10T00:37:48;96422.47;;;7.22;100.00
21361;BME280;10839;43.206;23.550;2022-12-10T00:40:14;96411.88;;;6.72;100.00
21361;BME280;10839;43.206;23.550;2022-12-10T00:42:40;96413.25;;;6.32;100.00
21361;BME280;10839;43.206;23.550;2022-12-10T00:45:06;96413.66;;;6.65;100.00
21361;BME280;10839;43.206;23.550;2022-12-10T00:47:33;96418.56;;;6.62;100.00
21361;BME280;10839;43.206;23.550;2022-12-10T00:49:58;96408.97;;;6.88;100.00
21361;BME280;10839;43.206;23.550;2022-12-10T00:52:26;96400.31;;;6.86;100.00
21361;BME280;10839;43.206;23.550;2022-12-10T00:54:52;96411.91;;;6.93;100.00
21361;BME280;10839;43.206;23.550;2022-12-10T00:57:19;96408.78;;;6.90;100.00
21361;BME280;10839;43.206;23.550;2022-12-10T00:59:46;96417.44;;;6.06;100.00
21361;BME280;10839;43.206;23.550;2022-12-10T01:02:12;96402.50;;;6.26;100.00
21361;BME280;10839;43.206;23.550;2022-12-10T01:04:38;96385.66;;;6.25;100.00
21361;BME280;10839;43.206;23.550;2022-12-10T01:07:07;96391.09;;;6.03;100.00
21361;BME280;10839;43.206;23.550;2022-12-10T01:09:34;96410.53;;;5.97;100.00
21361;BME280;10839;43.206;23.550;2022-12-10T01:12:02;96387.53;;;6.10;100.00
21361;BME280;10839;43.206;23.550;2022-12-10T01:14:33;96398.03;;;6.12;100.00
21361;BME280;10839;43.206;23.550;2022-12-10T01:17:01;96393.41;;;5.91;100.00
21361;BME280;10839;43.206;23.550;2022-12-10T01:19:30;96380.47;;;6.24;100.00
21361;BME280;10839;43.206;23.550;2022-12-10T01:21:59;96391.53;;;6.21;100.00
21361;BME280;10839;43.206;23.550;2022-12-10T01:24:27;96369.56;;;6.04;100.00
21361;BME280;10839;43.206;23.550;2022-12-10T01:26:53;96376.63;;;6.26;100.00
21361;BME280;10839;43.206;23.550;2022-12-10T01:29:21;96387.53;;;6.46;100.00
21361;BME280;10839;43.206;23.550;2022-12-10T01:31:51;96388.22;;;6.19;100.00
21361;BME280;10839;43.206;23.550;2022-12-10T01:34:18;96384.44;;;6.28;100.00
21361;BME280;10839;43.206;23.550;2022-12-10T01:36:47;96359.03;;;6.32;100.00
21361;BME280;10839;43.206;23.550;2022-12-10T01:39:16;96391.22;;;6.45;100.00
21361;BME280;10839;43.206;23.550;2022-12-10T01:41:45;96396.78;;;6.65;100.00
21361;BME280;10839;43.206;23.550;2022-12-10T01:46:42;96345.72;;;7.85;100.00
21361;BME280;10839;43.206;23.550;2022-12-10T01:49:21;96332.16;;;10.67;100.00
21361;BME280;10839;43.206;23.550;2022-12-10T01:51:50;96381.47;;;9.38;100.00
21361;BME280;10839;43.206;23.550;2022-12-10T01:54:21;96352.88;;;8.72;100.00
21361;BME280;10839;43.206;23.550;2022-12-10T01:56:52;96345.13;;;9.42;100.00
21361;BME280;10839;43.206;23.550;2022-12-10T01:59:20;96354.59;;;9.77;100.00
21361;BME280;10839;43.206;23.550;2022-12-10T02:09:42;96332.91;;;12.39;100.00
21361;BME280;10839;43.206;23.550;2022-12-10T02:15:29;96334.41;;;12.53;100.00
21361;BME280;10839;43.206;23.550;2022-12-10T02:18:05;96319.28;;;12.34;100.00
21361;BME280;10839;43.206;23.550;2022-12-10T02:20:55;96272.44;;;13.18;100.00
21361;BME280;10839;43.206;23.550;2022-12-10T02:26:15;96332.53;;;11.82;100.00
21361;BME280;10839;43.206;23.550;2022-12-10T02:29:11;96326.78;;;10.22;100.00
21361;BME280;10839;43.206;23.550;2022-12-10T02:31:42;96312.38;;;9.97;100.00
21361;BME280;10839;43.206;23.550;2022-12-10T02:34:11;96307.13;;;9.06;100.00
21361;BME280;10839;43.206;23.550;2022-12-10T02:36:42;96294.94;;;9.36;100.00
21361;BME280;10839;43.206;23.550;2022-12-10T02:39:14;96316.81;;;9.59;100.00
21361;BME280;10839;43.206;23.550;2022-12-10T02:41:51;96295.56;;;9.38;100.00
21361;BME280;10839;43.206;23.550;2022-12-10T02:44:20;96293.81;;;9.83;100.00
21361;BME280;10839;43.206;23.550;2022-12-10T02:46:49;96283.59;;;10.55;100.00
21361;BME280;10839;43.206;23.550;2022-12-10T02:49:18;96282.34;;;10.58;100.00
21361;BME280;10839;43.206;23.550;2022-12-10T02:51:45;96284.72;;;11.28;100.00
21361;BME280;10839;43.206;23.550;2022-12-10T02:54:43;96267.28;;;12.45;100.00
21361;BME280;10839;43.206;23.550;2022-12-10T03:06:09;96265.59;;;14.19;100.00
21361;BME280;10839;43.206;23.550;2022-12-10T03:08:44;96271.22;;;14.29;100.00
21361;BME280;10839;43.206;23.550;2022-12-10T03:11:13;96279.47;;;14.11;100.00
21361;BME280;10839;43.206;23.550;2022-12-10T03:16:16;96274.22;;;13.93;100.00
21361;BME280;10839;43.206;23.550;2022-12-10T03:18:43;96277.97;;;14.27;100.00
21361;BME280;10839;43.206;23.550;2022-12-10T03:21:11;96253.09;;;14.41;100.00
21361;BME280;10839;43.206;23.550;2022-12-10T03:23:41;96276.59;;;14.52;100.00
21361;BME280;10839;43.206;23.550;2022-12-10T03:26:11;96282.03;;;14.52;100.00
21361;BME280;10839;43.206;23.550;2022-12-10T03:28:42;96260.06;;;14.37;100.00
21361;BME280;10839;43.206;23.550;2022-12-10T03:31:13;96237.81;;;14.63;100.00
21361;BME280;10839;43.206;23.550;2022-12-10T03:33:40;96263.44;;;14.72;100.00
21361;BME280;10839;43.206;23.550;2022-12-10T03:36:08;96287.50;;;14.69;100.00
21361;BME280;10839;43.206;23.550;2022-12-10T03:38:35;96254.41;;;15.11;99.41
21361;BME280;10839;43.206;23.550;2022-12-10T03:41:02;96252.00;;;14.98;100.00
21361;BME280;10839;43.206;23.550;2022-12-10T03:43:29;96227.13;;;14.85;100.00
21361;BME280;10839;43.206;23.550;2022-12-10T03:45:56;96229.75;;;14.96;100.00
21361;BME280;10839;43.206;23.550;2022-12-10T03:48:22;96244.13;;;14.97;100.00
21361;BME280;10839;43.206;23.550;2022-12-10T03:50:48;96236.94;;;14.74;100.00
21361;BME280;10839;43.206;23.550;2022-12-10T03:53:14;96227.03;;;14.96;100.00
21361;BME280;10839;43.206;23.550;2022-12-10T03:55:40;96232.03;;;14.88;100.00
21361;BME280;10839;43.206;23.550;2022-12-10T03:58:06;96225.00;;;14.87;100.00
21361;BME280;10839;43.206;23.550;2022-12-10T04:00:32;96227.91;;;14.69;100.00
21361;BME280;10839;43.206;23.550;2022-12-10T04:02:58;96240.56;;;14.80;100.00
21361;BME280;10839;43.206;23.550;2022-12-10T04:05:25;96231.38;;;14.97;99.02
21361;BME280;10839;43.206;23.550;2022-12-10T04:07:50;96256.88;;;14.40;100.00
21361;BME280;10839;43.206;23.550;2022-12-10T04:10:17;96262.22;;;13.08;100.00
21361;BME280;10839;43.206;23.550;2022-12-10T04:12:43;96282.63;;;11.30;100.00
21361;BME280;10839;43.206;23.550;2022-12-10T04:15:30;96276.78;;;10.08;100.00
21361;BME280;10839;43.206;23.550;2022-12-10T04:18:16;96267.84;;;10.27;100.00
21361;BME280;10839;43.206;23.550;2022-12-10T04:20:42;96282.66;;;9.86;100.00
21361;BME280;10839;43.206;23.550;2022-12-10T04:23:26;96269.09;;;9.48;100.00
21361;BME280;10839;43.206;23.550;2022-12-10T04:26:19;96241.72;;;11.64;100.00
21361;BME280;10839;43.206;23.550;2022-12-10T04:29:05;96249.16;;;10.95;100.00
21361;BME280;10839;43.206;23.550;2022-12-10T04:31:32;96264.41;;;10.45;100.00
21361;BME280;10839;43.206;23.550;2022-12-10T04:33:58;96256.91;;;10.54;100.00
21361;BME280;10839;43.206;23.550;2022-12-10T04:36:24;96252.63;;;12.23;100.00
21361;BME280;10839;43.206;23.550;2022-12-10T04:38:50;96264.72;;;11.42;100.00
21361;BME280;10839;43.206;23.550;2022-12-10T04:41:16;96278.09;;;11.06;100.00
21361;BME280;10839;43.206;23.550;2022-12-10T04:43:42;96288.69;;;11.01;100.00
21361;BME280;10839;43.206;23.550;2022-12-10T04:46:09;96279.28;;;11.34;100.00
21361;BME280;10839;43.206;23.550;2022-12-10T04:48:36;96277.59;;;13.08;100.00
21361;BME280;10839;43.206;23.550;2022-12-10T04:51:02;96278.25;;;13.90;100.00
21361;BME280;10839;43.206;23.550;2022-12-10T04:53:28;96262.28;;;14.40;100.00
21361;BME280;10839;43.206;23.550;2022-12-10T04:55:55;96267.13;;;14.66;100.00
21361;BME280;10839;43.206;23.550;2022-12-10T04:58:21;96281.94;;;14.75;100.00
21361;BME280;10839;43.206;23.550;2022-12-10T05:00:47;96277.53;;;14.46;100.00
21361;BME280;10839;43.206;23.550;2022-12-10T05:03:14;96302.56;;;14.25;100.00
21361;BME280;10839;43.206;23.550;2022-12-10T05:05:40;96319.84;;;12.54;100.00
21361;BME280;10839;43.206;23.550;2022-12-10T05:08:06;96307.50;;;10.70;100.00
21361;BME280;10839;43.206;23.550;2022-12-10T05:10:34;96309.44;;;10.05;100.00
21361;BME280;10839;43.206;23.550;2022-12-10T05:13:01;96316.19;;;10.34;100.00
21361;BME280;10839;43.206;23.550;2022-12-10T05:15:28;96276.88;;;9.82;100.00
21361;BME280;10839;43.206;23.550;2022-12-10T05:17:54;96295.38;;;11.41;100.00
21361;BME280;10839;43.206;23.550;2022-12-10T05:20:20;96277.00;;;11.56;100.00
21361;BME280;10839;43.206;23.550;2022-12-10T05:22:46;96275.56;;;11.11;100.00
21361;BME280;10839;43.206;23.550;2022-12-10T05:25:31;96286.59;;;11.03;100.00
21361;BME280;10839;43.206;23.550;2022-12-10T05:28:22;96293.28;;;13.29;100.00
21361;BME280;10839;43.206;23.550;2022-12-10T05:30:48;96292.56;;;13.68;100.00
21361;BME280;10839;43.206;23.550;2022-12-10T05:33:14;96295.03;;;14.16;100.00
21361;BME280;10839;43.206;23.550;2022-12-10T05:35:41;96292.19;;;14.22;100.00
21361;BME280;10839;43.206;23.550;2022-12-10T05:38:07;96290.78;;;14.31;100.00
21361;BME280;10839;43.206;23.550;2022-12-10T05:40:37;96291.81;;;14.42;100.00
21361;BME280;10839;43.206;23.550;2022-12-10T05:43:03;96294.47;;;14.53;100.00
21361;BME280;10839;43.206;23.550;2022-12-10T05:45:32;96313.25;;;14.20;100.00
21361;BME280;10839;43.206;23.550;2022-12-10T05:47:59;96309.53;;;14.49;100.00
21361;BME280;10839;43.206;23.550;2022-12-10T05:50:26;96314.88;;;14.84;100.00
21361;BME280;10839;43.206;23.550;2022-12-10T05:52:53;96311.69;;;14.47;100.00
21361;BME280;10839;43.206;23.550;2022-12-10T05:55:20;96283.59;;;14.37;100.00
21361;BME280;10839;43.206;23.550;2022-12-10T05:57:46;96296.84;;;14.78;100.00
21361;BME280;10839;43.206;23.550;2022-12-10T06:00:12;96287.81;;;14.72;100.00
21361;BME280;10839;43.206;23.550;2022-12-10T06:02:39;96276.84;;;14.39;100.00
21361;BME280;10839;43.206;23.550;2022-12-10T06:05:05;96314.13;;;14.88;100.00
21361;BME280;10839;43.206;23.550;2022-12-10T06:07:31;96290.78;;;14.87;100.00
21361;BME280;10839;43.206;23.550;2022-12-10T06:09:57;96288.38;;;14.74;100.00
21361;BME280;10839;43.206;23.550;2022-12-10T06:12:23;96271.88;;;15.04;100.00
21361;BME280;10839;43.206;23.550;2022-12-10T06:14:49;96312.19;;;15.00;100.00
21361;BME280;10839;43.206;23.550;2022-12-10T06:17:15;96283.69;;;14.70;100.00
21361;BME280;10839;43.206;23.550;2022-12-10T06:19:41;96255.44;;;14.94;100.00
21361;BME280;10839;43.206;23.550;2022-12-10T06:22:08;96239.28;;;15.15;99.21
21361;BME280;10839;43.206;23.550;2022-12-10T06:24:34;96219.91;;;14.90;98.98
21361;BME280;10839;43.206;23.550;2022-12-10T06:27:00;96215.31;;;15.07;99.14
21361;BME280;10839;43.206;23.550;2022-12-10T06:29:25;96213.41;;;15.24;97.75
21361;BME280;10839;43.206;23.550;2022-12-10T06:31:52;96213.84;;;15.16;97.35
21361;BME280;10839;43.206;23.550;2022-12-10T06:34:18;96261.00;;;15.32;96.87
21361;BME280;10839;43.206;23.550;2022-12-10T06:36:45;96198.41;;;15.33;96.35
21361;BME280;10839;43.206;23.550;2022-12-10T06:39:11;96221.31;;;15.09;96.45
21361;BME280;10839;43.206;23.550;2022-12-10T06:41:38;96251.94;;;15.26;94.21
21361;BME280;10839;43.206;23.550;2022-12-10T06:44:34;96252.31;;;15.47;94.33
21361;BME280;10839;43.206;23.550;2022-12-10T06:47:00;96265.91;;;15.18;95.06
21361;BME280;10839;43.206;23.550;2022-12-10T06:49:26;96239.78;;;15.29;95.61
21361;BME280;10839;43.206;23.550;2022-12-10T06:51:53;96234.19;;;15.35;96.09
21361;BME280;10839;43.206;23.550;2022-12-10T06:54:19;96252.19;;;15.08;98.26
21361;BME280;10839;43.206;23.550;2022-12-10T06:56:45;96260.50;;;15.18;95.69
21361;BME280;10839;43.206;23.550;2022-12-10T06:59:11;96260.38;;;15.42;94.19
21361;BME280;10839;43.206;23.550;2022-12-10T07:01:37;96265.50;;;15.26;93.89
21361;BME280;10839;43.206;23.550;2022-12-10T07:04:03;96268.03;;;15.16;94.75
21361;BME280;10839;43.206;23.550;2022-12-10T07:06:31;96260.38;;;15.42;93.66
21361;BME280;10839;43.206;23.550;2022-12-10T07:08:57;96262.28;;;15.29;93.27
21361;BME280;10839;43.206;23.550;2022-12-10T07:11:24;96267.53;;;15.19;94.86
21361;BME280;10839;43.206;23.550;2022-12-10T07:13:51;96262.16;;;15.53;92.55
21361;BME280;10839;43.206;23.550;2022-12-10T07:16:23;96294.06;;;15.34;92.22
21361;BME280;10839;43.206;23.550;2022-12-10T07:18:50;96263.75;;;15.20;95.39
21361;BME280;10839;43.206;23.550;2022-12-10T07:21:18;96262.63;;;15.33;95.22
21361;BME280;10839;43.206;23.550;2022-12-10T07:23:45;96252.28;;;15.13;97.70
21361;BME280;10839;43.206;23.550;2022-12-10T07:26:12;96268.75;;;14.95;99.67
21361;BME280;10839;43.206;23.550;2022-12-10T07:28:39;96274.75;;;15.30;95.52
21361;BME280;10839;43.206;23.550;2022-12-10T07:31:07;96221.97;;;15.16;96.43
21361;BME280;10839;43.206;23.550;2022-12-10T07:33:34;96242.44;;;14.79;99.77
21361;BME280;10839;43.206;23.550;2022-12-10T07:36:06;96221.06;;;15.27;96.42
21361;BME280;10839;43.206;23.550;2022-12-10T07:38:35;96210.72;;;15.24;95.90
21361;BME280;10839;43.206;23.550;2022-12-10T07:41:08;96218.25;;;14.89;100.00
21361;BME280;10839;43.206;23.550;2022-12-10T07:43:37;96221.56;;;15.24;98.20
21361;BME280;10839;43.206;23.550;2022-12-10T07:46:14;96212.34;;;15.25;95.33
21361;BME280;10839;43.206;23.550;2022-12-10T07:48:41;96209.25;;;15.00;97.49
21361;BME280;10839;43.206;23.550;2022-12-10T07:51:08;96199.38;;;15.44;93.76
21361;BME280;10839;43.206;23.550;2022-12-10T07:53:35;96194.88;;;15.50;92.19
21361;BME280;10839;43.206;23.550;2022-12-10T07:56:01;96218.09;;;15.29;94.65
21361;BME280;10839;43.206;23.550;2022-12-10T07:58:27;96209.81;;;15.69;91.17
21361;BME280;10839;43.206;23.550;2022-12-10T08:00:53;96208.56;;;15.60;90.67
21361;BME280;10839;43.206;23.550;2022-12-10T08:03:19;96212.50;;;15.35;91.76
21361;BME280;10839;43.206;23.550;2022-12-10T08:05:46;96192.97;;;15.67;90.04
21361;BME280;10839;43.206;23.550;2022-12-10T08:08:12;96214.66;;;15.67;90.67
21361;BME280;10839;43.206;23.550;2022-12-10T08:10:38;96200.53;;;15.31;92.85
21361;BME280;10839;43.206;23.550;2022-12-10T08:13:05;96200.50;;;15.65;91.14
21361;BME280;10839;43.206;23.550;2022-12-10T08:15:31;96228.09;;;15.78;89.73
21361;BME280;10839;43.206;23.550;2022-12-10T08:17:58;96232.75;;;15.45;90.72
21361;BME280;10839;43.206;23.550;2022-12-10T08:20:24;96229.41;;;15.76;89.86
21361;BME280;10839;43.206;23.550;2022-12-10T08:22:51;96239.63;;;15.69;91.02
21361;BME280;10839;43.206;23.550;2022-12-10T08:25:17;96222.41;;;15.42;91.99
21361;BME280;10839;43.206;23.550;2022-12-10T08:27:43;96213.66;;;15.73;89.91
21361;BME280;10839;43.206;23.550;2022-12-10T08:30:09;96218.25;;;15.94;88.81
21361;BME280;10839;43.206;23.550;2022-12-10T08:32:35;96225.69;;;15.60;90.84
21361;BME280;10839;43.206;23.550;2022-12-10T08:35:02;96214.78;;;15.77;90.12
21361;BME280;10839;43.206;23.550;2022-12-10T08:37:29;96216.78;;;16.03;87.45
21361;BME280;10839;43.206;23.550;2022-12-10T08:39:57;96195.06;;;15.81;86.54
21361;BME280;10839;43.206;23.550;2022-12-10T08:42:23;96203.00;;;16.09;86.90
21361;BME280;10839;43.206;23.550;2022-12-10T08:44:50;96196.28;;;16.12;86.85
21361;BME280;10839;43.206;23.550;2022-12-10T08:47:16;96191.19;;;15.99;86.39
21361;BME280;10839;43.206;23.550;2022-12-10T08:49:42;96188.47;;;16.20;86.47
21361;BME280;10839;43.206;23.550;2022-12-10T08:52:09;96205.31;;;16.44;84.06
21361;BME280;10839;43.206;23.550;2022-12-10T08:54:36;96175.03;;;16.09;85.25
21361;BME280;10839;43.206;23.550;2022-12-10T08:57:03;96164.00;;;16.15;85.71
21361;BME280;10839;43.206;23.550;2022-12-10T08:59:29;96182.50;;;16.40;82.85
21361;BME280;10839;43.206;23.550;2022-12-10T09:01:55;96146.41;;;16.18;83.82
21361;BME280;10839;43.206;23.550;2022-12-10T09:04:21;96171.50;;;16.30;84.59
21361;BME280;10839;43.206;23.550;2022-12-10T09:06:47;96168.53;;;16.31;83.87
21361;BME280;10839;43.206;23.550;2022-12-10T09:09:13;96168.09;;;16.18;84.30
21361;BME280;10839;43.206;23.550;2022-12-10T09:11:41;96115.66;;;16.39;82.79
21361;BME280;10839;43.206;23.550;2022-12-10T09:14:07;96140.94;;;16.66;81.70
21361;BME280;10839;43.206;23.550;2022-12-10T09:16:38;96146.50;;;16.49;82.10
21361;BME280;10839;43.206;23.550;2022-12-10T09:19:07;96147.38;;;16.55;81.69
21361;BME280;10839;43.206;23.550;2022-12-10T09:21:36;96151.00;;;16.97;80.68
21361;BME280;10839;43.206;23.550;2022-12-10T09:24:02;96135.56;;;16.71;80.36
21361;BME280;10839;43.206;23.550;2022-12-10T09:26:28;96126.84;;;17.37;78.70
21361;BME280;10839;43.206;23.550;2022-12-10T09:28:54;96171.00;;;17.49;76.54
21361;BME280;10839;43.206;23.550;2022-12-10T09:31:21;96176.00;;;17.62;74.58
21361;BME280;10839;43.206;23.550;2022-12-10T09:33:50;96101.41;;;17.58;76.03
21361;BME280;10839;43.206;23.550;2022-12-10T09:36:19;96110.50;;;18.56;71.73
21361;BME280;10839;43.206;23.550;2022-12-10T09:38:46;96100.97;;;18.83;70.46
21361;BME280;10839;43.206;23.550;2022-12-10T09:44:00;96099.34;;;19.23;67.39
21361;BME280;10839;43.206;23.550;2022-12-10T09:46:55;96128.34;;;20.07;64.07
21361;BME280;10839;43.206;23.550;2022-12-10T09:52:14;96119.88;;;20.63;61.89
21361;BME280;10839;43.206;23.550;2022-12-10T09:54:50;96082.13;;;19.52;63.59
21361;BME280;10839;43.206;23.550;2022-12-10T10:00:09;96086.34;;;19.88;63.57
21361;BME280;10839;43.206;23.550;2022-12-10T10:02:41;96090.91;;;20.08;62.69
21361;BME280;10839;43.206;23.550;2022-12-10T10:07:42;96065.22;;;19.35;64.22
21361;BME280;10839;43.206;23.550;2022-12-10T10:10:34;96081.75;;;20.43;61.47
21361;BME280;10839;43.206;23.550;2022-12-10T10:13:30;96076.47;;;20.90;59.95
21361;BME280;10839;43.206;23.550;2022-12-10T10:16:26;96084.19;;;19.80;61.70
21361;BME280;10839;43.206;23.550;2022-12-10T10:18:59;96086.56;;;20.02;62.21
21361;BME280;10839;43.206;23.550;2022-12-10T10:21:32;96060.94;;;19.98;61.67
21361;BME280;10839;43.206;23.550;2022-12-10T10:23:59;96051.53;;;19.50;62.63
21361;BME280;10839;43.206;23.550;2022-12-10T10:26:26;96043.91;;;19.52;62.19
21361;BME280;10839;43.206;23.550;2022-12-10T10:28:56;96036.81;;;19.56;62.99
21361;BME280;10839;43.206;23.550;2022-12-10T10:31:27;96045.06;;;19.26;63.97
21361;BME280;10839;43.206;23.550;2022-12-10T10:34:00;96035.50;;;19.13;64.03
21361;BME280;10839;43.206;23.550;2022-12-10T10:36:36;96046.41;;;19.24;64.06
21361;BME280;10839;43.206;23.550;2022-12-10T10:41:45;96031.91;;;17.98;68.33
21361;BME280;10839;43.206;23.550;2022-12-10T10:44:16;96047.81;;;18.41;66.88
21361;BME280;10839;43.206;23.550;2022-12-10T10:46:46;96053.22;;;18.31;67.78
21361;BME280;10839;43.206;23.550;2022-12-10T10:49:30;96030.84;;;18.19;68.22
21361;BME280;10839;43.206;23.550;2022-12-10T10:52:22;96026.59;;;18.68;66.08
21361;BME280;10839;43.206;23.550;2022-12-10T10:54:51;96022.69;;;19.19;63.83
21361;BME280;10839;43.206;23.550;2022-12-10T10:57:36;96021.41;;;18.71;65.88
21361;BME280;10839;43.206;23.550;2022-12-10T11:00:22;96054.91;;;18.82;65.66
21361;BME280;10839;43.206;23.550;2022-12-10T11:02:49;96020.28;;;18.97;66.14
21361;BME280;10839;43.206;23.550;2022-12-10T11:05:21;96028.19;;;18.49;67.69
21361;BME280;10839;43.206;23.550;2022-12-10T11:07:58;96045.66;;;18.48;68.59
21361;BME280;10839;43.206;23.550;2022-12-10T11:10:26;96019.44;;;18.27;69.14
21361;BME280;10839;43.206;23.550;2022-12-10T11:15:35;96010.78;;;18.55;69.54
21361;BME280;10839;43.206;23.550;2022-12-10T11:18:09;96045.63;;;19.03;66.29
21361;BME280;10839;43.206;23.550;2022-12-10T11:23:44;96002.81;;;18.33;69.40
21361;BME280;10839;43.206;23.550;2022-12-10T11:37:38;95987.19;;;19.44;65.08
21361;BME280;10839;43.206;23.550;2022-12-10T11:57:22;95982.66;;;18.94;65.13
21361;BME280;10839;43.206;23.550;2022-12-10T12:00:24;95976.66;;;18.92;64.13
21361;BME280;10839;43.206;23.550;2022-12-10T12:03:15;95971.53;;;18.51;65.84
21361;BME280;10839;43.206;23.550;2022-12-10T12:06:27;95974.25;;;18.71;65.81
21361;BME280;10839;43.206;23.550;2022-12-10T12:14:25;95953.00;;;18.38;66.88
21361;BME280;10839;43.206;23.550;2022-12-10T12:19:37;95943.16;;;18.07;69.04
21361;BME280;10839;43.206;23.550;2022-12-10T12:22:33;95936.09;;;18.36;67.47
21361;BME280;10839;43.206;23.550;2022-12-10T12:25:05;95908.31;;;18.19;68.04
21361;BME280;10839;43.206;23.550;2022-12-10T12:27:41;95906.69;;;18.28;66.87
21361;BME280;10839;43.206;23.550;2022-12-10T12:30:19;95906.72;;;18.48;66.69
21361;BME280;10839;43.206;23.550;2022-12-10T12:32:57;95896.59;;;18.28;66.43
21361;BME280;10839;43.206;23.550;2022-12-10T12:35:47;95890.31;;;18.68;65.09
21361;BME280;10839;43.206;23.550;2022-12-10T12:41:34;95894.16;;;18.42;66.60
21361;BME280;10839;43.206;23.550;2022-12-10T12:46:48;95900.72;;;18.26;66.36
21361;BME280;10839;43.206;23.550;2022-12-10T12:49:24;95884.88;;;17.57;71.78
21361;BME280;10839;43.206;23.550;2022-12-10T12:54:21;95903.16;;;17.92;70.32
21361;BME280;10839;43.206;23.550;2022-12-10T13:00:03;95871.88;;;18.40;67.58
21361;BME280;10839;43.206;23.550;2022-12-10T13:05:37;95857.69;;;18.18;68.69
21361;BME280;10839;43.206;23.550;2022-12-10T13:08:22;95846.25;;;18.11;68.36
21361;BME280;10839;43.206;23.550;2022-12-10T13:13:41;95823.06;;;18.38;67.69
21361;BME280;10839;43.206;23.550;2022-12-10T13:19:24;95804.59;;;18.05;67.98
21361;BME280;10839;43.206;23.550;2022-12-10T13:24:21;95829.38;;;17.83;69.66
21361;BME280;10839;43.206;23.550;2022-12-10T13:40:56;95834.03;;;17.68;70.80
21361;BME280;10839;43.206;23.550;2022-12-10T13:43:38;95834.16;;;17.06;74.42
21361;BME280;10839;43.206;23.550;2022-12-10T13:46:54;95842.88;;;15.15;88.40
21361;BME280;10839;43.206;23.550;2022-12-10T13:49:24;95847.03;;;15.27;88.28
21361;BME280;10839;43.206;23.550;2022-12-10T13:52:07;95817.72;;;13.57;100.00
21361;BME280;10839;43.206;23.550;2022-12-10T14:00:22;95828.53;;;13.24;100.00
21361;BME280;10839;43.206;23.550;2022-12-10T14:05:39;95832.16;;;12.10;100.00
21361;BME280;10839;43.206;23.550;2022-12-10T14:08:14;95829.31;;;12.28;100.00
21361;BME280;10839;43.206;23.550;2022-12-10T14:10:42;95828.44;;;11.88;100.00
21361;BME280;10839;43.206;23.550;2022-12-10T14:13:13;95834.97;;;11.46;100.00
21361;BME280;10839;43.206;23.550;2022-12-10T14:15:50;95819.19;;;11.96;100.00
21361;BME280;10839;43.206;23.550;2022-12-10T14:18:18;95831.94;;;11.54;100.00
21361;BME280;10839;43.206;23.550;2022-12-10T14:20:46;95823.53;;;11.09;100.00
21361;BME280;10839;43.206;23.550;2022-12-10T14:23:30;95799.94;;;11.34;100.00
21361;BME280;10839;43.206;23.550;2022-12-10T14:29:19;95792.25;;;10.97;100.00
21361;BME280;10839;43.206;23.550;2022-12-10T14:31:49;95791.53;;;10.90;100.00
21361;BME280;10839;43.206;23.550;2022-12-10T14:34:24;95800.03;;;11.28;100.00
21361;BME280;10839;43.206;23.550;2022-12-10T14:36:54;95789.72;;;11.25;100.00
21361;BME280;10839;43.206;23.550;2022-12-10T14:39:26;95788.53;;;10.98;100.00
21361;BME280;10839;43.206;23.550;2022-12-10T14:41:56;95792.31;;;11.43;100.00
21361;BME280;10839;43.206;23.550;2022-12-10T14:44:24;95784.13;;;11.38;100.00
21361;BME280;10839;43.206;23.550;2022-12-10T14:47:03;95776.44;;;10.89;100.00
21361;BME280;10839;43.206;23.550;2022-12-10T14:49:30;95787.00;;;11.02;100.00
21361;BME280;10839;43.206;23.550;2022-12-10T14:51:56;95782.47;;;11.14;100.00
21361;BME280;10839;43.206;23.550;2022-12-10T14:54:28;95776.00;;;11.03;100.00
21361;BME280;10839;43.206;23.550;2022-12-10T14:57:03;95767.06;;;10.80;100.00
21361;BME280;10839;43.206;23.550;2022-12-10T14:59:46;95784.66;;;10.94;100.00
21361;BME280;10839;43.206;23.550;2022-12-10T15:02:19;95790.72;;;10.89;100.00
21361;BME280;10839;43.206;23.550;2022-12-10T15:04:48;95799.13;;;10.52;100.00
21361;BME280;10839;43.206;23.550;2022-12-10T15:07:19;95790.47;;;10.50;100.00
21361;BME280;10839;43.206;23.550;2022-12-10T15:09:47;95785.00;;;10.56;100.00
21361;BME280;10839;43.206;23.550;2022-12-10T15:12:30;95813.81;;;10.38;100.00
21361;BME280;10839;43.206;23.550;2022-12-10T15:15:07;95805.06;;;10.06;100.00